Time;durP1;ratioP1;P1;durP2;ratioP2;P2;SDS_P1;SDS_P2;PMS_P1;PMS_P2;Temp;Humidity;BMP_temperature;BMP_pressure;BME280_temperature;BME280_humidity;BME280_pressure;Samples;Min_cycle;Max_cycle;Signal;HPM_P1;HPM_P2
2023/12/27 00:00:29;;;;;;;2.50;1.50;;;;;;;7.43;76.06;98441.13;107107;1259;67887;-40
2023/12/27 00:02:57;;;;;;;4.00;1.10;;;;;;;7.41;76.25;98443.63;107078;1259;72445;-40
2023/12/27 00:05:25;;;;;;;1.90;1.30;;;;;;;7.41;76.58;98445.17;107081;1259;60432;-40
2023/12/27 00:07:53;;;;;;;1.90;1.30;;;;;;;7.47;76.63;98441.56;107074;1259;59978;-40
2023/12/27 00:10:21;;;;;;;2.40;1.20;;;;;;;7.52;76.66;98444.80;107072;1258;73150;-40
2023/12/27 00:12:48;;;;;;;2.90;1.40;;;;;;;7.51;76.99;98443.55;107066;1259;67308;-40
2023/12/27 00:15:16;;;;;;;2.20;1.40;;;;;;;7.47;77.31;98441.64;107066;1259;72471;-40
2023/12/27 00:17:43;;;;;;;2.90;1.20;;;;;;;7.43;77.86;98446.99;107093;1259;61670;-40
2023/12/27 00:20:11;;;;;;;4.10;1.40;;;;;;;7.45;78.47;98448.39;107058;1259;59638;-40
2023/12/27 00:22:39;;;;;;;2.40;1.60;;;;;;;7.46;79.01;98450.55;107063;1259;73071;-40
2023/12/27 00:25:06;;;;;;;2.40;1.50;;;;;;;7.39;80.24;98448.98;107030;1259;67544;-40
2023/12/27 00:27:34;;;;;;;3.60;1.20;;;;;;;7.29;81.14;98454.67;107035;1259;70705;-40
2023/12/27 00:30:02;;;;;;;2.10;1.40;;;;;;;7.22;81.20;98449.92;107061;1264;60471;-40
2023/12/27 00:32:30;;;;;;;2.00;1.50;;;;;;;7.25;81.17;98451.59;107125;1258;59985;-40
2023/12/27 00:34:58;;;;;;;1.90;1.40;;;;;;;7.25;81.31;98455.84;107065;1259;72884;-40
2023/12/27 00:37:25;;;;;;;4.10;1.60;;;;;;;7.21;81.82;98458.23;107038;1259;66642;-40
2023/12/27 00:39:53;;;;;;;3.90;1.60;;;;;;;7.18;82.24;98463.55;107024;1264;71472;-40
2023/12/27 00:42:21;;;;;;;2.50;1.50;;;;;;;7.17;82.36;98463.02;106973;1259;61759;-40
2023/12/27 00:44:49;;;;;;;2.80;1.40;;;;;;;7.17;82.18;98461.70;107080;1259;59245;-40
2023/12/27 00:47:17;;;;;;;3.00;1.40;;;;;;;7.06;81.91;98455.04;107023;1258;72012;-40
2023/12/27 00:49:44;;;;;;;2.40;1.60;;;;;;;7.04;81.58;98467.01;107044;1259;67702;-40
2023/12/27 00:52:12;;;;;;;2.00;1.30;;;;;;;7.01;81.33;98464.58;107032;1259;72417;-40
2023/12/27 00:54:39;;;;;;;2.70;1.60;;;;;;;7.01;80.73;98462.73;107019;1258;59622;-40
2023/12/27 00:57:07;;;;;;;2.90;1.70;;;;;;;6.96;80.56;98469.40;106918;1259;59674;-40
2023/12/27 00:59:35;;;;;;;2.70;1.60;;;;;;;6.88;80.57;98465.10;106897;1259;73041;-40
2023/12/27 01:02:03;;;;;;;2.40;1.50;;;;;;;6.81;80.92;98465.98;107065;1263;66626;-40
2023/12/27 01:04:32;;;;;;;4.10;1.30;;;;;;;6.80;81.04;98468.35;107019;1259;72690;-40
2023/12/27 01:07:00;;;;;;;3.50;1.70;;;;;;;6.82;81.17;98461.76;107087;1258;59669;-40
2023/12/27 01:09:27;;;;;;;2.70;1.50;;;;;;;6.77;81.33;98463.17;107030;1259;59943;-40
2023/12/27 01:11:55;;;;;;;3.30;1.60;;;;;;;6.68;81.51;98460.17;107025;1258;72992;-40
2023/12/27 01:14:23;;;;;;;3.20;1.50;;;;;;;6.61;81.63;98461.34;107023;1259;65920;-40
2023/12/27 01:16:51;;;;;;;4.40;2.00;;;;;;;6.57;81.55;98460.89;107044;1258;72449;-40
2023/12/27 01:19:19;;;;;;;2.40;1.60;;;;;;;6.53;81.64;98458.02;106882;1258;60435;-40
2023/12/27 01:21:46;;;;;;;6.20;2.00;;;;;;;6.46;81.67;98459.11;107041;1259;60059;-40
2023/12/27 01:24:14;;;;;;;3.40;1.60;;;;;;;6.39;81.68;98458.27;107043;1259;73139;-40
2023/12/27 01:26:41;;;;;;;2.90;1.70;;;;;;;6.37;81.66;98459.09;107035;1259;66613;-40
2023/12/27 01:29:09;;;;;;;2.20;1.60;;;;;;;6.40;81.32;98455.83;107056;1261;72681;-40
2023/12/27 01:31:36;;;;;;;2.60;1.60;;;;;;;6.37;81.04;98456.31;107082;1259;59791;-40
2023/12/27 01:34:04;;;;;;;4.00;1.90;;;;;;;6.31;80.74;98451.13;107064;1258;60455;-40
2023/12/27 01:36:45;;;;;;;3.10;1.70;;;;;;;6.28;80.56;98452.83;106892;1258;73104;-40
2023/12/27 01:39:13;;;;;;;3.00;1.80;;;;;;;6.31;79.97;98445.27;107091;1262;67643;-40
2023/12/27 01:41:40;;;;;;;3.10;1.90;;;;;;;6.32;79.39;98451.97;107035;1258;72678;-40
2023/12/27 01:44:08;;;;;;;4.00;1.90;;;;;;;6.27;78.94;98452.34;107077;1258;59735;-40
2023/12/27 01:46:35;;;;;;;3.50;1.80;;;;;;;6.25;78.74;98453.83;107003;1258;59738;-41
2023/12/27 01:49:02;;;;;;;3.70;1.70;;;;;;;6.27;78.16;98450.48;106938;1258;71877;-40
2023/12/27 01:51:30;;;;;;;2.40;1.60;;;;;;;6.30;77.92;98449.40;106912;1259;66427;-40
2023/12/27 01:53:58;;;;;;;4.00;1.80;;;;;;;6.27;77.79;98455.58;107014;1259;72701;-40
2023/12/27 01:56:26;;;;;;;3.50;1.80;;;;;;;6.24;77.76;98452.20;107024;1259;60082;-40
2023/12/27 01:58:53;;;;;;;4.10;1.80;;;;;;;6.23;77.44;98451.80;106886;1258;60018;-40
2023/12/27 02:01:21;;;;;;;3.90;1.80;;;;;;;6.22;76.92;98450.17;106925;1264;73148;-40
2023/12/27 02:03:48;;;;;;;3.20;1.70;;;;;;;6.34;76.16;98459.79;106897;1259;66534;-40
2023/12/27 02:06:19;;;;;;;3.50;1.60;;;;;;;6.35;75.76;98455.80;106971;1258;71414;-40
2023/12/27 02:08:47;;;;;;;3.80;2.00;;;;;;;6.33;75.23;98464.24;107047;1259;59482;-40
2023/12/27 02:11:15;;;;;;;2.40;1.70;;;;;;;6.34;74.82;98470.94;106917;1258;59515;-40
2023/12/27 02:13:43;;;;;;;2.80;1.70;;;;;;;6.39;74.35;98472.05;107026;1259;71868;-40
2023/12/27 02:16:10;;;;;;;3.40;1.80;;;;;;;6.40;73.87;98478.52;107064;1258;66440;-40
2023/12/27 02:18:38;;;;;;;4.20;1.80;;;;;;;6.38;73.70;98470.86;106882;1264;70888;-40
2023/12/27 02:21:07;;;;;;;5.30;1.70;;;;;;;6.36;73.43;98474.13;106888;1259;59162;-40
2023/12/27 02:23:36;;;;;;;2.50;1.40;;;;;;;6.39;73.51;98473.97;107020;1259;60027;-40
2023/12/27 02:26:03;;;;;;;6.30;2.10;;;;;;;6.42;73.16;98472.73;107079;1259;72348;-40
2023/12/27 02:28:31;;;;;;;6.80;1.60;;;;;;;6.32;73.07;98468.20;106855;1258;66310;-40
2023/12/27 02:30:58;;;;;;;3.10;1.70;;;;;;;6.34;73.01;98475.48;107015;1262;71407;-40
2023/12/27 02:33:26;;;;;;;3.60;1.70;;;;;;;6.32;73.32;98478.75;106888;1264;59655;-40
2023/12/27 02:35:54;;;;;;;3.40;1.70;;;;;;;6.35;73.03;98481.13;107042;1262;59714;-40
2023/12/27 02:38:21;;;;;;;2.80;1.40;;;;;;;6.40;72.57;98479.45;107031;1259;71779;-40
2023/12/27 02:40:49;;;;;;;2.00;1.50;;;;;;;6.39;71.92;98474.13;106971;1259;67904;-40
2023/12/27 02:43:16;;;;;;;4.20;1.80;;;;;;;6.39;71.84;98471.65;105425;1259;1003594;-40
2023/12/27 02:45:44;;;;;;;2.90;1.70;;;;;;;6.38;71.74;98467.88;106982;1263;59733;-40
2023/12/27 02:48:11;;;;;;;2.60;1.60;;;;;;;6.43;71.62;98473.67;107012;1259;60063;-40
2023/12/27 02:50:43;;;;;;;7.10;1.90;;;;;;;6.49;71.36;98473.02;106883;1262;71834;-40
2023/12/27 02:53:11;;;;;;;3.20;1.60;;;;;;;6.48;71.57;98474.31;106872;1264;67633;-41
2023/12/27 02:55:40;;;;;;;3.60;1.70;;;;;;;6.45;71.74;98468.62;106917;1261;71439;-40
2023/12/27 02:58:07;;;;;;;8.40;2.20;;;;;;;6.41;71.41;98461.86;107003;1259;60924;-40
2023/12/27 03:00:37;;;;;;;4.30;1.60;;;;;;;6.41;70.83;98450.71;106998;1262;60906;-40
2023/12/27 03:03:05;;;;;;;3.20;1.80;;;;;;;6.48;70.64;98458.63;107023;1258;74080;-40
2023/12/27 03:05:33;;;;;;;3.80;1.60;;;;;;;6.46;70.91;98455.51;106964;1259;66739;-40
2023/12/27 03:08:01;;;;;;;4.30;1.70;;;;;;;6.42;71.08;98451.89;107004;1259;72708;-40
2023/12/27 03:10:28;;;;;;;3.80;1.50;;;;;;;6.38;71.12;98454.66;106986;1259;60458;-40
2023/12/27 03:12:55;;;;;;;3.20;1.50;;;;;;;6.42;70.52;98454.90;107020;1260;59732;-40
2023/12/27 03:15:23;;;;;;;4.00;2.00;;;;;;;6.45;70.10;98459.40;107006;1259;73822;-40
2023/12/27 03:17:51;;;;;;;3.00;1.50;;;;;;;6.43;69.87;98456.30;106873;1264;67571;-40
2023/12/27 03:20:18;;;;;;;3.80;1.80;;;;;;;6.42;69.58;98464.27;107033;1261;72457;-40
2023/12/27 03:22:46;;;;;;;3.10;1.60;;;;;;;6.40;69.78;98470.30;106876;1260;60193;-40
2023/12/27 03:25:13;;;;;;;2.70;1.60;;;;;;;6.44;69.70;98466.55;107021;1259;59259;-40
2023/12/27 03:27:41;;;;;;;2.80;1.50;;;;;;;6.48;69.37;98470.10;107017;1259;71798;-40
2023/12/27 03:30:09;;;;;;;3.60;1.50;;;;;;;6.47;69.20;98465.00;107037;1258;66335;-40
2023/12/27 03:32:37;;;;;;;3.70;1.30;;;;;;;6.44;69.23;98460.70;107052;1263;72499;-40
2023/12/27 03:35:05;;;;;;;3.60;1.80;;;;;;;6.42;69.44;98461.34;107044;1259;60429;-40
2023/12/27 03:37:32;;;;;;;4.20;1.50;;;;;;;6.41;69.53;98463.25;107048;1259;60402;-40
2023/12/27 03:40:00;;;;;;;5.00;1.70;;;;;;;6.46;69.48;98463.73;106167;1258;1003519;-40
2023/12/27 03:42:27;;;;;;;5.60;1.50;;;;;;;6.49;69.25;98465.71;107030;1263;67904;-40
2023/12/27 03:44:55;;;;;;;5.20;1.90;;;;;;;6.48;69.36;98463.41;107019;1259;71421;-40
2023/12/27 03:47:23;;;;;;;3.90;1.70;;;;;;;6.45;69.30;98458.48;107032;1258;60268;-40
2023/12/27 03:49:50;;;;;;;3.70;1.50;;;;;;;6.44;69.32;98465.45;106893;1258;59686;-40
2023/12/27 03:52:18;;;;;;;2.70;1.40;;;;;;;6.42;69.16;98462.12;107022;1258;73791;-40
2023/12/27 03:54:45;;;;;;;3.80;1.40;;;;;;;6.46;69.15;98464.13;106869;1259;66999;-40
2023/12/27 03:57:13;;;;;;;3.20;1.50;;;;;;;6.46;69.17;98466.05;107026;1259;72659;-40
2023/12/27 03:59:40;;;;;;;3.90;1.60;;;;;;;6.42;69.39;98462.43;106841;1259;60187;-40
2023/12/27 04:02:08;;;;;;;2.60;1.80;;;;;;;6.38;69.46;98457.89;106898;1258;60346;-40
2023/12/27 04:04:38;;;;;;;3.90;1.60;;;;;;;6.36;69.37;98467.30;107051;1263;73900;-40
2023/12/27 04:07:06;;;;;;;;;;;;;;;6.38;69.07;98462.81;106957;1259;68819;-40
2023/12/27 04:09:33;;;;;;;3.40;1.40;;;;;;;6.36;69.05;98464.30;107015;1259;72783;-39
2023/12/27 04:12:01;;;;;;;3.30;1.80;;;;;;;6.30;68.95;98464.48;106993;1263;60525;-40
2023/12/27 04:14:28;;;;;;;3.40;1.40;;;;;;;6.25;69.08;98467.06;107045;1258;60507;-40
2023/12/27 04:16:56;;;;;;;6.40;2.00;;;;;;;6.24;69.09;98477.04;107016;1258;72565;-40
2023/12/27 04:19:23;;;;;;;3.30;1.60;;;;;;;6.30;68.53;98471.23;106979;1258;67050;-40
2023/12/27 04:21:51;;;;;;;3.70;1.70;;;;;;;6.32;68.34;98474.91;107012;1258;72509;-40
2023/12/27 04:24:18;;;;;;;3.90;1.50;;;;;;;6.30;68.53;98472.40;107023;1259;60458;-40
2023/12/27 04:26:46;;;;;;;5.10;1.90;;;;;;;6.26;67.99;98474.85;107036;1263;60337;-40
2023/12/27 04:29:14;;;;;;;4.40;1.70;;;;;;;6.24;68.03;98478.02;106906;1260;73842;-40
2023/12/27 04:31:41;;;;;;;3.90;1.70;;;;;;;6.22;67.88;98458.08;106862;1258;67903;-40
2023/12/27 04:34:08;;;;;;;6.40;1.70;;;;;;;6.25;67.84;98459.14;106849;1258;72717;-40
2023/12/27 04:36:37;;;;;;;2.50;1.50;;;;;;;6.23;67.76;98464.16;106864;1258;61054;-40
2023/12/27 04:39:06;;;;;;;4.50;1.80;;;;;;;6.17;67.99;98468.20;106992;1260;60287;-40
2023/12/27 04:41:34;;;;;;;4.10;1.50;;;;;;;6.13;68.18;98467.11;106932;1258;73821;-40
2023/12/27 04:44:01;;;;;;;4.20;1.70;;;;;;;6.09;68.05;98460.17;107045;1262;67743;-40
2023/12/27 04:46:29;;;;;;;5.10;1.90;;;;;;;6.14;68.01;98467.13;107023;1258;72725;-40
2023/12/27 04:48:56;;;;;;;4.60;1.70;;;;;;;6.15;68.01;98462.15;106993;1259;60904;-40
2023/12/27 04:51:24;;;;;;;2.90;2.00;;;;;;;6.09;68.04;98460.18;107017;1262;60341;-40
2023/12/27 04:53:55;;;;;;;3.80;1.90;;;;;;;6.04;68.14;98457.91;107071;1259;71303;-40
2023/12/27 04:56:23;;;;;;;5.40;1.90;;;;;;;6.02;68.33;98463.54;106901;1259;67583;-40
2023/12/27 04:58:51;;;;;;;2.50;1.60;;;;;;;6.04;68.45;98462.54;106934;1260;71885;-40
2023/12/27 05:01:18;;;;;;;3.50;1.60;;;;;;;6.09;68.46;98467.64;107017;1264;59660;-40
2023/12/27 05:03:46;;;;;;;4.40;1.90;;;;;;;6.06;68.47;98462.05;106957;1261;60258;-40
2023/12/27 05:06:14;;;;;;;5.10;2.00;;;;;;;6.03;68.56;98457.89;107039;1259;73840;-40
2023/12/27 05:08:43;;;;;;;5.30;2.00;;;;;;;6.03;68.85;98455.58;107006;1262;67272;-40
2023/12/27 05:11:15;;;;;;;5.20;2.00;;;;;;;6.01;68.89;98463.38;107017;1259;71478;-40
2023/12/27 05:13:43;;;;;;;4.10;2.10;;;;;;;6.06;68.75;98466.95;107086;1259;61486;-40
2023/12/27 05:16:12;;;;;;;4.30;1.80;;;;;;;6.09;68.69;98464.34;107041;1262;60099;-40
2023/12/27 05:18:40;;;;;;;3.70;1.90;;;;;;;6.08;68.71;98473.23;107035;1263;72757;-40
2023/12/27 05:21:08;;;;;;;5.20;1.80;;;;;;;6.06;68.71;98468.41;107072;1262;67586;-40
2023/12/27 05:23:36;;;;;;;6.50;1.90;;;;;;;6.05;68.57;98467.33;106963;1261;71483;-40
2023/12/27 05:26:04;;;;;;;2.90;1.60;;;;;;;6.05;68.58;98466.48;107023;1259;60552;-40
2023/12/27 05:28:32;;;;;;;3.90;2.00;;;;;;;6.11;68.10;98459.98;106882;1259;60458;-40
2023/12/27 05:30:59;;;;;;;3.90;1.80;;;;;;;6.13;67.98;98463.20;106929;1262;74138;-40
2023/12/27 05:33:27;;;;;;;5.00;1.80;;;;;;;6.12;67.85;98466.69;107058;1262;67549;-40
2023/12/27 05:35:55;;;;;;;5.30;1.90;;;;;;;6.10;67.86;98469.34;107014;1259;71421;-40
2023/12/27 05:38:25;;;;;;;4.20;1.70;;;;;;;6.08;67.93;98470.15;106954;1262;61129;-40
2023/12/27 05:40:52;;;;;;;3.00;1.60;;;;;;;6.10;67.91;98470.35;106909;1261;59739;-40
2023/12/27 05:43:20;;;;;;;4.20;2.00;;;;;;;6.13;67.67;98477.87;107039;1260;72613;-40
2023/12/27 05:45:47;;;;;;;4.00;2.20;;;;;;;6.09;67.59;98477.09;106952;1264;67736;-40
2023/12/27 05:48:15;;;;;;;5.20;1.90;;;;;;;6.06;67.57;98478.25;107025;1262;71335;-40
2023/12/27 05:50:43;;;;;;;3.50;1.70;;;;;;;6.05;67.81;98478.23;107020;1259;60573;-40
2023/12/27 05:53:11;;;;;;;6.00;1.80;;;;;;;6.05;67.83;98478.40;107019;1262;60555;-39
2023/12/27 05:55:41;;;;;;;5.30;2.00;;;;;;;6.08;67.58;98471.23;107007;1261;72596;-41
2023/12/27 05:58:09;;;;;;;3.60;1.90;;;;;;;6.08;67.59;98473.06;107037;1260;66658;-40
2023/12/27 06:00:37;;;;;;;5.80;2.70;;;;;;;6.04;67.86;98471.91;107021;1263;71394;-39
2023/12/27 06:03:05;;;;;;;3.70;1.70;;;;;;;6.00;67.98;98472.43;107032;1259;60946;-39
2023/12/27 06:05:33;;;;;;;5.10;2.20;;;;;;;6.00;68.08;98474.20;106916;1259;58752;-39
2023/12/27 06:08:00;;;;;;;4.80;1.80;;;;;;;6.02;68.01;98480.85;107004;1261;72638;-39
2023/12/27 06:10:29;;;;;;;3.70;1.90;;;;;;;6.01;67.83;98482.59;107015;1263;66294;-39
2023/12/27 06:12:57;;;;;;;4.40;1.80;;;;;;;5.99;67.91;98489.00;106995;1259;72746;-39
2023/12/27 06:15:24;;;;;;;3.40;1.60;;;;;;;5.94;67.86;98493.43;106991;1263;60522;-39
2023/12/27 06:17:52;;;;;;;4.40;1.60;;;;;;;5.96;67.97;98497.31;106862;1258;60116;-39
2023/12/27 06:20:20;;;;;;;2.90;1.70;;;;;;;5.97;68.02;98499.44;107008;1258;74341;-39
2023/12/27 06:22:47;;;;;;;4.30;1.50;;;;;;;5.95;68.53;98490.00;106875;1262;66331;-39
2023/12/27 06:25:15;;;;;;;5.70;2.40;;;;;;;5.91;68.84;98493.66;107015;1263;72760;-39
2023/12/27 06:27:42;;;;;;;3.90;1.80;;;;;;;5.85;69.36;98505.95;106867;1262;60921;-39
2023/12/27 06:30:10;;;;;;;5.00;1.90;;;;;;;5.85;69.50;98510.71;106867;1261;59265;-39
2023/12/27 06:32:38;;;;;;;4.80;2.00;;;;;;;5.84;68.35;98508.30;107019;1259;73792;-39
2023/12/27 06:35:06;;;;;;;4.50;1.60;;;;;;;5.79;67.10;98506.33;106929;1261;66666;-39
2023/12/27 06:37:34;;;;;;;2.40;1.20;;;;;;;5.74;65.36;98509.60;107022;1262;72614;-39
2023/12/27 06:40:05;;;;;;;2.50;1.30;;;;;;;5.72;64.26;98523.14;107015;1259;60525;-39
2023/12/27 06:42:33;;;;;;;4.70;1.40;;;;;;;5.68;63.51;98520.84;107116;1262;59602;-39
2023/12/27 06:45:01;;;;;;;1.50;1.00;;;;;;;5.61;63.18;98511.77;106906;1264;73779;-39
2023/12/27 06:47:28;;;;;;;4.90;0.90;;;;;;;5.55;62.48;98505.54;107014;1261;68034;-39
2023/12/27 06:49:56;;;;;;;1.50;0.80;;;;;;;5.42;62.59;98519.73;106904;1262;72700;-39
2023/12/27 06:52:24;;;;;;;1.50;0.90;;;;;;;5.29;62.83;98521.31;107019;1259;60487;-39
2023/12/27 06:54:51;;;;;;;1.00;0.70;;;;;;;5.18;61.92;98527.99;107056;1262;60523;-39
2023/12/27 06:57:18;;;;;;;4.40;0.60;;;;;;;5.09;61.69;98539.73;107001;1263;73653;-39
2023/12/27 06:59:46;;;;;;;0.80;0.60;;;;;;;5.02;60.45;98523.95;105517;1259;1003096;-39
2023/12/27 07:02:14;;;;;;;0.70;0.60;;;;;;;4.97;60.30;98534.80;107085;1259;72500;-40
2023/12/27 07:04:43;;;;;;;2.40;0.60;;;;;;;4.93;60.46;98545.06;107024;1262;60341;-40
2023/12/27 07:07:11;;;;;;;1.00;0.40;;;;;;;4.90;60.57;98549.85;107035;1261;60336;-40
2023/12/27 07:09:38;;;;;;;1.00;0.60;;;;;;;4.86;60.79;98551.90;106872;1261;73901;-40
2023/12/27 07:12:08;;;;;;;1.20;0.60;;;;;;;4.81;60.54;98556.06;106935;1261;66605;-40
2023/12/27 07:14:36;;;;;;;0.60;0.60;;;;;;;4.78;60.62;98562.27;106871;1260;71670;-40
2023/12/27 07:17:04;;;;;;;1.30;0.60;;;;;;;4.75;60.80;98570.10;107057;1259;60553;-40
2023/12/27 07:19:32;;;;;;;0.90;0.60;;;;;;;4.75;61.34;98579.98;107038;1259;59587;-40
2023/12/27 07:22:01;;;;;;;1.00;0.50;;;;;;;4.73;61.61;98584.14;107005;1261;73825;-40
2023/12/27 07:24:29;;;;;;;1.40;0.70;;;;;;;4.69;62.05;98588.34;107003;1260;67725;-40
2023/12/27 07:26:57;;;;;;;2.60;0.60;;;;;;;4.69;62.66;98599.69;107032;1262;72565;-40
2023/12/27 07:29:25;;;;;;;0.90;0.60;;;;;;;4.73;62.98;98602.80;107047;1259;61751;-40
2023/12/27 07:31:52;;;;;;;1.20;0.50;;;;;;;4.73;63.12;98604.70;107061;1259;60580;-40
2023/12/27 07:34:21;;;;;;;0.80;0.50;;;;;;;4.69;63.50;98612.73;106980;1259;73785;-40
2023/12/27 07:36:49;;;;;;;1.70;0.80;;;;;;;4.66;63.82;98611.63;107057;1261;66595;-40
2023/12/27 07:39:17;;;;;;;0.80;0.60;;;;;;;4.61;64.09;98614.10;107005;1260;71401;-40
2023/12/27 07:41:44;;;;;;;1.80;0.60;;;;;;;4.57;64.42;98606.83;107025;1263;60461;-40
2023/12/27 07:44:12;;;;;;;0.50;0.50;;;;;;;4.54;64.71;98616.02;107017;1259;60345;-40
2023/12/27 07:46:40;;;;;;;1.60;0.60;;;;;;;4.53;64.98;98619.61;107025;1259;72988;-40
2023/12/27 07:49:07;;;;;;;0.60;0.50;;;;;;;4.58;65.21;98629.42;107037;1259;67898;-40
2023/12/27 07:51:35;;;;;;;2.30;0.70;;;;;;;4.58;65.66;98637.77;107044;1263;71432;-40
2023/12/27 07:54:03;;;;;;;1.20;0.70;;;;;;;4.52;66.28;98644.40;107019;1260;60528;-40
2023/12/27 07:56:30;;;;;;;0.70;0.70;;;;;;;4.44;66.60;98645.79;106299;1259;1003780;-40
2023/12/27 07:58:58;;;;;;;2.20;0.80;;;;;;;4.39;66.68;98648.54;107057;1262;72082;-40
2023/12/27 08:01:30;;;;;;;1.00;0.70;;;;;;;4.36;67.14;98647.52;107020;1263;67580;-40
2023/12/27 08:04:01;;;;;;;2.10;0.60;;;;;;;4.37;67.27;98655.07;107037;1263;72495;-40
2023/12/27 08:06:29;;;;;;;1.90;0.60;;;;;;;4.41;67.34;98663.00;107022;1260;60538;-40
2023/12/27 08:08:57;;;;;;;2.30;0.80;;;;;;;4.40;67.36;98672.24;107077;1263;60407;-40
2023/12/27 08:11:24;;;;;;;1.40;0.80;;;;;;;4.37;67.31;98677.23;107070;1260;72665;-40
2023/12/27 08:13:52;;;;;;;1.30;0.80;;;;;;;4.34;67.36;98686.87;107032;1259;66510;-40
2023/12/27 08:16:19;;;;;;;1.10;0.80;;;;;;;4.28;67.30;98687.73;107007;1259;72743;-40
2023/12/27 08:18:47;;;;;;;2.10;0.80;;;;;;;4.25;67.55;98705.27;107038;1259;60917;-40
2023/12/27 08:21:14;;;;;;;3.10;0.90;;;;;;;4.28;67.35;98717.11;107042;1259;60526;-40
2023/12/27 08:23:42;;;;;;;2.10;0.80;;;;;;;4.30;67.09;98723.46;107029;1260;73886;-40
2023/12/27 08:26:10;;;;;;;1.80;0.80;;;;;;;4.30;66.89;98724.16;107044;1260;66788;-40
2023/12/27 08:28:38;;;;;;;1.80;1.00;;;;;;;4.38;66.47;98732.06;107043;1259;72525;-41
2023/12/27 08:31:06;;;;;;;1.10;0.90;;;;;;;4.50;66.14;98739.69;107037;1263;60441;-40
2023/12/27 08:33:37;;;;;;;1.10;0.80;;;;;;;4.63;65.14;98740.66;107017;1264;59567;-40
2023/12/27 08:36:05;;;;;;;1.20;0.80;;;;;;;4.74;64.21;98732.47;107060;1259;73828;-39
2023/12/27 08:38:33;;;;;;;0.80;0.50;;;;;;;4.84;63.90;98739.98;107064;1262;67602;-39
2023/12/27 08:41:02;;;;;;;2.30;0.70;;;;;;;4.93;63.37;98747.02;107041;1265;72485;-39
2023/12/27 08:43:30;;;;;;;;;;;;;;;5.06;62.61;98740.13;107038;1264;60687;-39
2023/12/27 08:45:58;;;;;;;2.80;0.80;;;;;;;5.20;62.13;98744.41;107030;1261;60449;-39
2023/12/27 08:48:25;;;;;;;1.70;0.80;;;;;;;5.28;61.99;98748.39;107008;1263;73878;-40
2023/12/27 08:50:53;;;;;;;0.90;0.60;;;;;;;5.25;61.82;98757.61;107032;1259;67950;-39
2023/12/27 08:53:21;;;;;;;1.10;0.70;;;;;;;5.15;61.83;98755.30;107049;1259;72803;-39
2023/12/27 08:55:48;;;;;;;3.00;0.80;;;;;;;5.01;62.21;98758.39;107015;1261;60567;-39
2023/12/27 08:58:16;;;;;;;1.50;0.70;;;;;;;4.88;62.89;98767.99;106994;1264;60413;-39
2023/12/27 09:00:43;;;;;;;0.80;0.60;;;;;;;4.73;63.50;98761.60;107040;1263;73878;-39
2023/12/27 09:03:11;;;;;;;2.00;0.70;;;;;;;4.66;63.88;98771.66;107034;1259;67916;-39
2023/12/27 09:05:39;;;;;;;0.80;0.60;;;;;;;4.66;63.46;98776.54;107053;1263;72680;-39
2023/12/27 09:08:07;;;;;;;0.70;0.60;;;;;;;4.62;62.79;98777.88;107070;1262;60536;-39
2023/12/27 09:10:35;;;;;;;1.10;0.90;;;;;;;4.62;63.40;98781.03;107075;1260;60403;-39
2023/12/27 09:13:03;;;;;;;1.00;0.80;;;;;;;4.63;63.05;98782.45;107057;1260;73852;-39
2023/12/27 09:15:31;;;;;;;1.60;1.10;;;;;;;4.65;62.65;98787.79;107101;1261;66624;-39
2023/12/27 09:17:59;;;;;;;1.10;0.80;;;;;;;4.66;61.80;98780.92;107075;1259;71388;-39
2023/12/27 09:20:27;;;;;;;2.30;0.90;;;;;;;4.68;62.05;98786.28;107044;1261;60437;-39
2023/12/27 09:22:55;;;;;;;1.70;0.80;;;;;;;4.69;61.85;98785.57;107052;1260;60465;-39
2023/12/27 09:25:22;;;;;;;1.40;0.70;;;;;;;4.72;61.91;98790.08;107041;1261;73858;-39
2023/12/27 09:27:50;;;;;;;1.80;1.00;;;;;;;4.71;61.46;98796.21;107034;1261;67537;-39
2023/12/27 09:30:18;;;;;;;1.80;1.00;;;;;;;4.70;60.71;98793.09;107054;1261;72665;-39
2023/12/27 09:32:45;;;;;;;1.60;1.10;;;;;;;4.69;60.84;98795.30;107064;1263;60338;-39
2023/12/27 09:35:13;;;;;;;1.40;0.60;;;;;;;4.69;61.33;98801.44;107058;1261;60353;-39
2023/12/27 09:37:41;;;;;;;1.00;0.70;;;;;;;4.69;61.84;98806.89;107057;1261;73882;-39
2023/12/27 09:40:09;;;;;;;2.10;1.10;;;;;;;4.68;61.89;98809.62;107031;1263;67928;-39
2023/12/27 09:42:37;;;;;;;1.10;0.80;;;;;;;4.68;61.67;98810.76;107026;1261;72714;-39
2023/12/27 09:45:07;;;;;;;1.80;0.70;;;;;;;4.74;60.86;98810.42;107069;1260;60528;-39
2023/12/27 09:47:37;;;;;;;1.70;0.90;;;;;;;4.81;61.07;98817.00;107020;1263;60407;-39
2023/12/27 09:50:06;;;;;;;2.30;0.90;;;;;;;4.84;61.09;98814.34;107122;1260;72591;-39
2023/12/27 09:52:34;;;;;;;1.60;0.90;;;;;;;4.83;60.66;98816.39;107118;1260;67927;-39
2023/12/27 09:55:02;;;;;;;1.10;0.70;;;;;;;4.84;60.51;98821.31;107091;1260;71484;-39
2023/12/27 09:57:30;;;;;;;1.70;0.90;;;;;;;4.84;60.16;98821.92;107013;1261;60406;-39
2023/12/27 09:59:57;;;;;;;1.00;0.90;;;;;;;4.81;59.76;98813.34;107055;1263;60122;-39
2023/12/27 10:02:28;;;;;;;0.90;0.60;;;;;;;4.83;60.30;98821.99;107021;1263;73276;-39
2023/12/27 10:05:02;;;;;;;0.90;0.70;;;;;;;4.84;60.09;98816.80;107049;1264;67976;-39
2023/12/27 10:07:30;;;;;;;1.60;0.70;;;;;;;4.85;59.35;98805.93;107056;1260;72749;-39
2023/12/27 10:09:57;;;;;;;2.20;0.70;;;;;;;4.87;58.91;98816.22;107027;1260;60439;-39
2023/12/27 10:12:43;;;;;;;2.20;1.00;;;;;;;4.91;58.83;98820.08;107036;1259;60442;-39
2023/12/27 10:15:12;;;;;;;1.50;0.90;;;;;;;4.95;58.78;98821.30;107110;1263;73905;-39
2023/12/27 10:17:42;;;;;;;2.00;0.80;;;;;;;4.98;58.37;98823.48;107035;1264;67945;-39
2023/12/27 10:20:14;;;;;;;2.20;0.90;;;;;;;4.99;58.14;98821.59;107070;1263;71413;-39
2023/12/27 10:22:42;;;;;;;3.30;1.30;;;;;;;4.97;58.57;98823.83;107041;1263;60388;-39
2023/12/27 10:25:09;;;;;;;1.10;0.80;;;;;;;4.95;59.04;98836.94;107082;1261;60309;-39
2023/12/27 10:27:39;;;;;;;2.90;0.80;;;;;;;4.93;59.29;98834.36;106942;1264;74033;-39
2023/12/27 10:30:08;;;;;;;2.30;0.80;;;;;;;4.93;59.61;98835.49;107064;1261;66236;-40
2023/12/27 10:32:36;;;;;;;1.90;0.80;;;;;;;4.91;59.40;98831.84;107184;1259;72753;-40
2023/12/27 10:35:04;;;;;;;1.30;0.70;;;;;;;4.90;59.73;98835.64;107012;1261;61006;-40
2023/12/27 10:37:32;;;;;;;1.90;0.90;;;;;;;4.89;59.97;98838.83;107110;1264;60205;-40
2023/12/27 10:39:59;;;;;;;2.10;0.90;;;;;;;4.87;60.37;98836.54;107045;1261;72638;-39
2023/12/27 10:42:28;;;;;;;1.70;0.80;;;;;;;4.85;60.52;98837.63;106960;1264;68124;-40
2023/12/27 10:44:56;;;;;;;6.50;1.80;;;;;;;4.83;60.76;98837.57;107055;1261;72477;-40
2023/12/27 10:47:23;;;;;;;2.00;1.10;;;;;;;4.80;61.06;98834.93;107057;1261;60507;-40
2023/12/27 10:49:52;;;;;;;1.40;0.80;;;;;;;4.82;61.08;98840.89;107068;1259;60342;-40
2023/12/27 10:52:19;;;;;;;3.10;0.90;;;;;;;4.84;61.04;98843.96;107052;1260;73799;-39
2023/12/27 10:54:50;;;;;;;2.10;0.90;;;;;;;4.87;60.87;98838.45;107052;1261;66718;-39
2023/12/27 10:57:19;;;;;;;1.50;0.90;;;;;;;4.90;60.33;98841.86;107055;1261;71462;-40
2023/12/27 10:59:47;;;;;;;2.40;1.00;;;;;;;4.94;60.47;98845.30;107035;1260;60512;-39
2023/12/27 11:02:14;;;;;;;1.00;0.80;;;;;;;4.95;60.32;98850.23;106971;1259;127028;-39
2023/12/27 11:06:58;;;;;;;1.50;1.00;;;;;;;4.92;59.56;98850.50;104126;1291;601218;-40
2023/12/27 11:09:25;;;;;;;1.90;0.90;;;;;;;4.88;59.77;98856.68;106486;1266;59323;-40
2023/12/27 11:11:53;;;;;;;1.40;0.80;;;;;;;4.87;60.37;98856.35;106902;1259;60396;-40
2023/12/27 11:14:24;;;;;;;2.80;0.80;;;;;;;4.86;60.42;98861.34;106932;1259;71056;-40
2023/12/27 11:16:52;;;;;;;2.20;1.00;;;;;;;4.85;60.76;98861.10;106885;1259;67858;-40
2023/12/27 11:19:20;;;;;;;1.50;1.00;;;;;;;4.84;60.86;98868.04;106878;1259;71561;-40
2023/12/27 11:21:48;;;;;;;2.20;0.90;;;;;;;4.84;61.00;98871.75;107074;1256;104697;-40
2023/12/27 11:24:15;;;;;;;2.80;1.20;;;;;;;4.85;60.77;98865.08;106986;1256;59143;-40
2023/12/27 11:26:43;;;;;;;3.10;1.00;;;;;;;4.84;60.31;98874.96;107145;1256;70688;-40
2023/12/27 11:29:11;;;;;;;1.30;0.90;;;;;;;4.85;60.64;98878.80;107020;1263;67603;-40
2023/12/27 11:31:38;;;;;;;2.40;1.40;;;;;;;4.82;60.75;98878.35;107089;1256;72729;-40
2023/12/27 11:34:06;;;;;;;3.80;1.40;;;;;;;4.80;60.62;98880.50;107086;1257;59644;-40
2023/12/27 11:36:34;;;;;;;2.70;1.10;;;;;;;4.78;60.53;98885.89;107147;1256;60043;-40
2023/12/27 11:39:18;;;;;;;2.30;1.10;;;;;;;4.77;60.92;98884.41;107168;1256;72837;-40